sensor_id;sensor_type;location;lat;lon;timestamp;pressure;altitude;pressure_sealevel;temperature;humidity
54876;BME280;40764;48.472;8.166;2023-02-02T00:00:12;99074.59;;;5.09;86.93
54876;BME280;40764;48.472;8.166;2023-02-02T00:06:13;99080.00;;;5.09;86.85
54876;BME280;40764;48.472;8.166;2023-02-02T00:12:14;99075.41;;;5.21;86.16
54876;BME280;40764;48.472;8.166;2023-02-02T00:18:26;99091.66;;;5.09;88.33
54876;BME280;40764;48.472;8.166;2023-02-02T00:24:26;99080.97;;;5.03;90.23
54876;BME280;40764;48.472;8.166;2023-02-02T00:30:26;99079.22;;;4.96;90.57
54876;BME280;40764;48.472;8.166;2023-02-02T00:36:27;99079.53;;;4.88;90.31
54876;BME280;40764;48.472;8.166;2023-02-02T00:42:27;99084.38;;;4.86;90.33
54876;BME280;40764;48.472;8.166;2023-02-02T00:48:28;99070.00;;;4.86;91.41
54876;BME280;40764;48.472;8.166;2023-02-02T00:54:28;99071.06;;;4.85;91.74
54876;BME280;40764;48.472;8.166;2023-02-02T01:00:29;99057.41;;;4.80;92.36
54876;BME280;40764;48.472;8.166;2023-02-02T01:06:29;99064.38;;;4.76;92.40
54876;BME280;40764;48.472;8.166;2023-02-02T01:12:30;99068.72;;;4.88;91.22
54876;BME280;40764;48.472;8.166;2023-02-02T01:18:30;99073.41;;;5.05;89.50
54876;BME280;40764;48.472;8.166;2023-02-02T01:24:31;99080.22;;;5.19;89.34
54876;BME280;40764;48.472;8.166;2023-02-02T01:30:31;99097.44;;;5.13;87.90
54876;BME280;40764;48.472;8.166;2023-02-02T01:36:31;99082.09;;;5.18;88.45
54876;BME280;40764;48.472;8.166;2023-02-02T01:42:32;99076.44;;;5.20;87.84
54876;BME280;40764;48.472;8.166;2023-02-02T01:48:33;99069.03;;;5.15;87.92
54876;BME280;40764;48.472;8.166;2023-02-02T01:54:43;99091.06;;;5.19;87.39
54876;BME280;40764;48.472;8.166;2023-02-02T02:00:44;99074.34;;;5.22;87.09
54876;BME280;40764;48.472;8.166;2023-02-02T02:06:44;99068.66;;;5.23;86.90
54876;BME280;40764;48.472;8.166;2023-02-02T02:12:46;99061.13;;;5.14;87.65
54876;BME280;40764;48.472;8.166;2023-02-02T02:19:10;99059.47;;;5.13;88.04
54876;BME280;40764;48.472;8.166;2023-02-02T02:25:32;99057.25;;;5.10;88.12
54876;BME280;40764;48.472;8.166;2023-02-02T02:38:15;99047.09;;;5.28;86.30
54876;BME280;40764;48.472;8.166;2023-02-02T02:44:19;99054.97;;;5.30;85.80
54876;BME280;40764;48.472;8.166;2023-02-02T02:50:20;99062.63;;;5.33;85.04
54876;BME280;40764;48.472;8.166;2023-02-02T02:57:23;99078.44;;;5.24;85.98
54876;BME280;40764;48.472;8.166;2023-02-02T03:03:31;99067.38;;;5.26;86.38
54876;BME280;40764;48.472;8.166;2023-02-02T03:09:37;99074.56;;;5.20;86.35
54876;BME280;40764;48.472;8.166;2023-02-02T03:15:42;99063.50;;;5.22;86.19
54876;BME280;40764;48.472;8.166;2023-02-02T03:21:42;99063.72;;;5.20;86.47
54876;BME280;40764;48.472;8.166;2023-02-02T03:27:43;99070.81;;;5.21;86.62
54876;BME280;40764;48.472;8.166;2023-02-02T03:33:43;99067.13;;;5.27;86.21
54876;BME280;40764;48.472;8.166;2023-02-02T03:39:44;99073.38;;;5.28;85.95
54876;BME280;40764;48.472;8.166;2023-02-02T03:45:44;99084.44;;;5.26;86.75
54876;BME280;40764;48.472;8.166;2023-02-02T03:51:44;99071.59;;;5.34;85.83
54876;BME280;40764;48.472;8.166;2023-02-02T03:57:48;99089.84;;;5.38;85.66
54876;BME280;40764;48.472;8.166;2023-02-02T04:03:49;99098.09;;;5.32;85.87
54876;BME280;40764;48.472;8.166;2023-02-02T04:09:49;99084.31;;;5.33;85.74
54876;BME280;40764;48.472;8.166;2023-02-02T04:15:57;99094.34;;;5.33;85.99
54876;BME280;40764;48.472;8.166;2023-02-02T04:21:57;99089.84;;;5.38;86.28
54876;BME280;40764;48.472;8.166;2023-02-02T04:27:58;99089.69;;;5.45;85.34
54876;BME280;40764;48.472;8.166;2023-02-02T04:33:58;99093.72;;;5.42;85.43
54876;BME280;40764;48.472;8.166;2023-02-02T04:40:02;99087.44;;;5.53;84.72
54876;BME280;40764;48.472;8.166;2023-02-02T04:46:03;99096.06;;;5.50;85.45
54876;BME280;40764;48.472;8.166;2023-02-02T04:52:04;99101.84;;;5.42;86.08
54876;BME280;40764;48.472;8.166;2023-02-02T04:58:04;99098.44;;;5.35;87.27
54876;BME280;40764;48.472;8.166;2023-02-02T05:04:05;99092.53;;;5.38;87.33
54876;BME280;40764;48.472;8.166;2023-02-02T05:10:06;99100.34;;;5.35;87.51
54876;BME280;40764;48.472;8.166;2023-02-02T05:16:07;99109.06;;;5.37;87.53
54876;BME280;40764;48.472;8.166;2023-02-02T05:22:08;99102.66;;;5.43;86.74
54876;BME280;40764;48.472;8.166;2023-02-02T05:28:08;99117.03;;;5.55;86.32
54876;BME280;40764;48.472;8.166;2023-02-02T05:34:08;99119.25;;;5.58;86.20
54876;BME280;40764;48.472;8.166;2023-02-02T05:40:10;99109.38;;;5.52;85.89
54876;BME280;40764;48.472;8.166;2023-02-02T05:46:11;99113.09;;;5.63;85.60
54876;BME280;40764;48.472;8.166;2023-02-02T05:52:17;99110.91;;;5.48;86.00
54876;BME280;40764;48.472;8.166;2023-02-02T05:58:18;99121.53;;;5.49;86.08
54876;BME280;40764;48.472;8.166;2023-02-02T06:04:19;99123.53;;;5.54;85.63
54876;BME280;40764;48.472;8.166;2023-02-02T06:10:19;99127.41;;;5.46;85.80
54876;BME280;40764;48.472;8.166;2023-02-02T06:16:20;99145.84;;;5.73;84.87
54876;BME280;40764;48.472;8.166;2023-02-02T06:22:20;99155.53;;;5.69;85.11
54876;BME280;40764;48.472;8.166;2023-02-02T06:28:20;99153.66;;;5.69;85.39
54876;BME280;40764;48.472;8.166;2023-02-02T06:34:21;99163.59;;;5.64;86.24
54876;BME280;40764;48.472;8.166;2023-02-02T06:40:21;99165.66;;;5.73;85.55
54876;BME280;40764;48.472;8.166;2023-02-02T06:46:24;99180.34;;;5.60;86.45
54876;BME280;40764;48.472;8.166;2023-02-02T06:52:25;99171.47;;;5.65;85.84
54876;BME280;40764;48.472;8.166;2023-02-02T06:58:26;99168.19;;;5.63;86.37
54876;BME280;40764;48.472;8.166;2023-02-02T07:04:26;99175.88;;;5.54;86.74
54876;BME280;40764;48.472;8.166;2023-02-02T07:10:27;99177.50;;;5.67;85.58
54876;BME280;40764;48.472;8.166;2023-02-02T07:16:27;99171.59;;;5.70;85.91
54876;BME280;40764;48.472;8.166;2023-02-02T07:22:28;99164.41;;;5.64;86.48
54876;BME280;40764;48.472;8.166;2023-02-02T07:28:28;99166.06;;;5.65;86.09
54876;BME280;40764;48.472;8.166;2023-02-02T07:34:28;99167.50;;;5.56;86.72
54876;BME280;40764;48.472;8.166;2023-02-02T07:40:29;99170.97;;;5.80;86.06
54876;BME280;40764;48.472;8.166;2023-02-02T07:46:29;99166.63;;;5.79;85.81
54876;BME280;40764;48.472;8.166;2023-02-02T07:52:30;99173.47;;;5.70;86.20
54876;BME280;40764;48.472;8.166;2023-02-02T07:58:30;99167.47;;;5.68;86.07
54876;BME280;40764;48.472;8.166;2023-02-02T08:04:30;99166.63;;;5.67;86.14
54876;BME280;40764;48.472;8.166;2023-02-02T08:10:33;99172.06;;;5.67;86.46
54876;BME280;40764;48.472;8.166;2023-02-02T08:16:33;99170.84;;;5.75;86.08
54876;BME280;40764;48.472;8.166;2023-02-02T08:22:34;99168.50;;;5.78;86.16
54876;BME280;40764;48.472;8.166;2023-02-02T08:28:35;99164.84;;;5.73;86.21
54876;BME280;40764;48.472;8.166;2023-02-02T08:34:35;99159.75;;;5.76;86.40
54876;BME280;40764;48.472;8.166;2023-02-02T08:40:36;99179.38;;;5.78;86.02
54876;BME280;40764;48.472;8.166;2023-02-02T08:46:36;99190.91;;;5.85;85.33
54876;BME280;40764;48.472;8.166;2023-02-02T08:52:36;99199.75;;;5.81;85.71
54876;BME280;40764;48.472;8.166;2023-02-02T08:58:37;99213.31;;;5.93;84.43
54876;BME280;40764;48.472;8.166;2023-02-02T09:04:38;99232.44;;;5.86;84.72
54876;BME280;40764;48.472;8.166;2023-02-02T09:10:39;99221.69;;;5.91;84.79
54876;BME280;40764;48.472;8.166;2023-02-02T09:16:40;99221.81;;;5.96;84.51
54876;BME280;40764;48.472;8.166;2023-02-02T09:22:54;99231.94;;;5.89;84.68
54876;BME280;40764;48.472;8.166;2023-02-02T09:28:59;99241.03;;;5.95;84.73
54876;BME280;40764;48.472;8.166;2023-02-02T09:35:02;99259.41;;;6.04;83.92
54876;BME280;40764;48.472;8.166;2023-02-02T09:41:22;99270.50;;;6.03;84.24
54876;BME280;40764;48.472;8.166;2023-02-02T09:53:49;99280.34;;;5.69;88.81
54876;BME280;40764;48.472;8.166;2023-02-02T09:59:52;99259.00;;;5.60;90.24
54876;BME280;40764;48.472;8.166;2023-02-02T10:05:58;99274.81;;;5.64;90.76
54876;BME280;40764;48.472;8.166;2023-02-02T10:12:10;99285.53;;;5.70;90.44
54876;BME280;40764;48.472;8.166;2023-02-02T10:18:29;99279.84;;;5.72;90.19
54876;BME280;40764;48.472;8.166;2023-02-02T10:24:32;99289.66;;;5.73;89.99
54876;BME280;40764;48.472;8.166;2023-02-02T10:49:54;99289.03;;;6.06;87.21
54876;BME280;40764;48.472;8.166;2023-02-02T10:56:05;99283.97;;;6.09;86.70
54876;BME280;40764;48.472;8.166;2023-02-02T11:02:10;99283.41;;;6.07;86.63
54876;BME280;40764;48.472;8.166;2023-02-02T11:08:14;99272.97;;;6.16;85.43
54876;BME280;40764;48.472;8.166;2023-02-02T11:14:29;99283.84;;;6.16;85.56
54876;BME280;40764;48.472;8.166;2023-02-02T11:20:34;99279.19;;;6.28;85.05
54876;BME280;40764;48.472;8.166;2023-02-02T11:26:55;99283.69;;;6.22;85.17
54876;BME280;40764;48.472;8.166;2023-02-02T11:32:56;99270.53;;;6.31;83.71
54876;BME280;40764;48.472;8.166;2023-02-02T11:39:18;99270.88;;;6.35;83.96
54876;BME280;40764;48.472;8.166;2023-02-02T11:45:36;99280.25;;;6.27;84.24
54876;BME280;40764;48.472;8.166;2023-02-02T11:51:36;99268.53;;;6.38;84.00
54876;BME280;40764;48.472;8.166;2023-02-02T11:57:37;99286.09;;;6.36;84.36
54876;BME280;40764;48.472;8.166;2023-02-02T12:03:38;99275.88;;;6.38;84.83
54876;BME280;40764;48.472;8.166;2023-02-02T12:09:38;99290.34;;;6.15;87.22
54876;BME280;40764;48.472;8.166;2023-02-02T12:21:51;99306.53;;;6.10;88.51
54876;BME280;40764;48.472;8.166;2023-02-02T12:34:26;99300.84;;;6.00;89.26
54876;BME280;40764;48.472;8.166;2023-02-02T12:40:37;99292.38;;;6.08;89.09
54876;BME280;40764;48.472;8.166;2023-02-02T12:46:51;99285.00;;;6.20;88.24
54876;BME280;40764;48.472;8.166;2023-02-02T12:53:23;99280.53;;;6.14;87.98
54876;BME280;40764;48.472;8.166;2023-02-02T13:11:53;99283.59;;;6.17;87.52
54876;BME280;40764;48.472;8.166;2023-02-02T13:17:57;99283.94;;;6.21;87.30
54876;BME280;40764;48.472;8.166;2023-02-02T13:24:02;99293.81;;;6.27;87.00
54876;BME280;40764;48.472;8.166;2023-02-02T13:30:12;99296.19;;;6.24;87.28
54876;BME280;40764;48.472;8.166;2023-02-02T13:36:25;99287.63;;;6.15;87.69
54876;BME280;40764;48.472;8.166;2023-02-02T13:49:09;99304.88;;;6.09;87.87
54876;BME280;40764;48.472;8.166;2023-02-02T13:55:33;99314.75;;;6.15;87.34
54876;BME280;40764;48.472;8.166;2023-02-02T14:01:39;99319.94;;;6.16;88.00
54876;BME280;40764;48.472;8.166;2023-02-02T14:07:43;99334.84;;;6.14;88.27
54876;BME280;40764;48.472;8.166;2023-02-02T14:14:07;99333.03;;;6.19;88.15
54876;BME280;40764;48.472;8.166;2023-02-02T14:20:46;99344.69;;;6.32;87.39
54876;BME280;40764;48.472;8.166;2023-02-02T14:39:25;99342.47;;;6.29;87.74
54876;BME280;40764;48.472;8.166;2023-02-02T14:51:43;99328.63;;;6.30;88.87
54876;BME280;40764;48.472;8.166;2023-02-02T14:57:53;99341.44;;;6.18;89.29
54876;BME280;40764;48.472;8.166;2023-02-02T15:04:39;99342.84;;;6.20;88.53
54876;BME280;40764;48.472;8.166;2023-02-02T15:16:49;99356.31;;;6.15;90.73
54876;BME280;40764;48.472;8.166;2023-02-02T15:29:21;99373.81;;;6.08;91.31
54876;BME280;40764;48.472;8.166;2023-02-02T15:35:27;99379.31;;;6.01;91.86
54876;BME280;40764;48.472;8.166;2023-02-02T15:41:33;99382.53;;;5.98;92.90
54876;BME280;40764;48.472;8.166;2023-02-02T15:47:37;99401.50;;;5.86;93.78
54876;BME280;40764;48.472;8.166;2023-02-02T15:59:40;99411.69;;;5.91;93.95
54876;BME280;40764;48.472;8.166;2023-02-02T16:05:47;99425.22;;;5.79;94.36
54876;BME280;40764;48.472;8.166;2023-02-02T16:11:49;99419.66;;;5.86;94.39
54876;BME280;40764;48.472;8.166;2023-02-02T16:18:12;99430.91;;;6.01;93.17
54876;BME280;40764;48.472;8.166;2023-02-02T16:24:19;99428.88;;;5.85;93.87
54876;BME280;40764;48.472;8.166;2023-02-02T16:30:30;99442.94;;;5.94;92.89
54876;BME280;40764;48.472;8.166;2023-02-02T16:36:31;99451.09;;;6.05;91.68
54876;BME280;40764;48.472;8.166;2023-02-02T16:42:32;99462.88;;;5.99;92.13
54876;BME280;40764;48.472;8.166;2023-02-02T16:48:35;99456.00;;;5.85;93.23
54876;BME280;40764;48.472;8.166;2023-02-02T16:54:38;99477.63;;;5.92;93.05
54876;BME280;40764;48.472;8.166;2023-02-02T17:01:04;99481.41;;;6.02;91.21
54876;BME280;40764;48.472;8.166;2023-02-02T17:07:09;99501.72;;;6.00;91.84
54876;BME280;40764;48.472;8.166;2023-02-02T17:19:35;99532.16;;;5.90;93.21
54876;BME280;40764;48.472;8.166;2023-02-02T17:25:40;99550.31;;;5.89;93.63
54876;BME280;40764;48.472;8.166;2023-02-02T17:31:41;99541.38;;;6.01;93.62
54876;BME280;40764;48.472;8.166;2023-02-02T17:37:41;99554.47;;;5.74;95.01
54876;BME280;40764;48.472;8.166;2023-02-02T17:43:43;99547.38;;;5.61;95.94
54876;BME280;40764;48.472;8.166;2023-02-02T17:49:43;99555.53;;;5.73;96.00
54876;BME280;40764;48.472;8.166;2023-02-02T17:55:44;99541.66;;;5.81;94.86
54876;BME280;40764;48.472;8.166;2023-02-02T18:01:45;99541.16;;;5.72;95.78
54876;BME280;40764;48.472;8.166;2023-02-02T18:07:45;99533.53;;;5.81;94.78
54876;BME280;40764;48.472;8.166;2023-02-02T18:13:46;99534.72;;;5.85;94.24
54876;BME280;40764;48.472;8.166;2023-02-02T18:19:47;99544.81;;;5.78;95.64
54876;BME280;40764;48.472;8.166;2023-02-02T18:25:50;99543.97;;;5.66;96.23
54876;BME280;40764;48.472;8.166;2023-02-02T18:31:51;99547.38;;;5.61;96.37
54876;BME280;40764;48.472;8.166;2023-02-02T18:37:52;99541.25;;;5.66;96.56
54876;BME280;40764;48.472;8.166;2023-02-02T18:43:59;99559.75;;;5.57;97.60
54876;BME280;40764;48.472;8.166;2023-02-02T18:50:00;99561.25;;;5.53;98.14
54876;BME280;40764;48.472;8.166;2023-02-02T18:56:07;99565.63;;;5.54;97.88
54876;BME280;40764;48.472;8.166;2023-02-02T19:02:16;99580.38;;;5.58;98.27
54876;BME280;40764;48.472;8.166;2023-02-02T19:08:16;99576.16;;;5.62;97.60
54876;BME280;40764;48.472;8.166;2023-02-02T19:14:31;99584.91;;;5.76;96.21
54876;BME280;40764;48.472;8.166;2023-02-02T19:20:32;99585.22;;;5.56;97.07
54876;BME280;40764;48.472;8.166;2023-02-02T19:26:35;99596.66;;;5.58;97.73
54876;BME280;40764;48.472;8.166;2023-02-02T19:32:37;99600.13;;;5.47;98.34
54876;BME280;40764;48.472;8.166;2023-02-02T19:38:39;99606.44;;;5.59;97.57
54876;BME280;40764;48.472;8.166;2023-02-02T19:44:40;99616.63;;;5.64;97.07
54876;BME280;40764;48.472;8.166;2023-02-02T19:50:41;99581.47;;;5.39;99.09
54876;BME280;40764;48.472;8.166;2023-02-02T19:56:41;99570.66;;;5.20;99.90
54876;BME280;40764;48.472;8.166;2023-02-02T20:08:51;99544.56;;;5.19;100.00
54876;BME280;40764;48.472;8.166;2023-02-02T20:14:52;99556.09;;;5.15;100.00
54876;BME280;40764;48.472;8.166;2023-02-02T20:20:54;99552.19;;;5.29;99.66
54876;BME280;40764;48.472;8.166;2023-02-02T20:26:59;99551.13;;;5.30;98.72
54876;BME280;40764;48.472;8.166;2023-02-02T20:33:18;99556.31;;;5.32;99.22
54876;BME280;40764;48.472;8.166;2023-02-02T20:39:47;99555.31;;;5.44;97.05
54876;BME280;40764;48.472;8.166;2023-02-02T20:45:52;99554.44;;;5.62;96.52
54876;BME280;40764;48.472;8.166;2023-02-02T20:51:54;99553.03;;;5.59;97.07
54876;BME280;40764;48.472;8.166;2023-02-02T20:57:55;99557.78;;;5.46;97.85
54876;BME280;40764;48.472;8.166;2023-02-02T21:03:56;99560.31;;;5.29;100.00
54876;BME280;40764;48.472;8.166;2023-02-02T21:09:56;99562.13;;;5.35;99.43
54876;BME280;40764;48.472;8.166;2023-02-02T21:15:56;99570.38;;;5.40;99.40
54876;BME280;40764;48.472;8.166;2023-02-02T21:21:57;99571.75;;;5.49;98.03
54876;BME280;40764;48.472;8.166;2023-02-02T21:27:57;99572.13;;;5.53;98.33
54876;BME280;40764;48.472;8.166;2023-02-02T21:33:59;99567.69;;;5.40;98.44
54876;BME280;40764;48.472;8.166;2023-02-02T21:40:00;99568.47;;;5.59;97.29
54876;BME280;40764;48.472;8.166;2023-02-02T21:46:00;99565.53;;;5.60;94.69
54876;BME280;40764;48.472;8.166;2023-02-02T21:52:11;99567.22;;;5.73;93.64
54876;BME280;40764;48.472;8.166;2023-02-02T21:58:36;99572.50;;;5.68;94.16
54876;BME280;40764;48.472;8.166;2023-02-02T22:04:44;99578.06;;;5.73;93.40
54876;BME280;40764;48.472;8.166;2023-02-02T22:10:45;99592.69;;;5.72;92.85
54876;BME280;40764;48.472;8.166;2023-02-02T22:16:52;99592.69;;;5.72;93.95
54876;BME280;40764;48.472;8.166;2023-02-02T22:30:35;99585.47;;;5.66;94.56
54876;BME280;40764;48.472;8.166;2023-02-02T22:43:35;99588.91;;;5.43;95.00
54876;BME280;40764;48.472;8.166;2023-02-02T22:49:35;99575.13;;;5.45;95.13
54876;BME280;40764;48.472;8.166;2023-02-02T22:55:35;99581.25;;;5.40;95.67
54876;BME280;40764;48.472;8.166;2023-02-02T23:01:36;99585.69;;;5.35;96.27
54876;BME280;40764;48.472;8.166;2023-02-02T23:07:36;99582.44;;;5.44;95.23
54876;BME280;40764;48.472;8.166;2023-02-02T23:13:37;99583.94;;;5.40;95.57
54876;BME280;40764;48.472;8.166;2023-02-02T23:19:37;99579.22;;;5.36;95.59
54876;BME280;40764;48.472;8.166;2023-02-02T23:25:37;99594.66;;;5.35;95.53
54876;BME280;40764;48.472;8.166;2023-02-02T23:31:38;99592.78;;;5.36;94.62
54876;BME280;40764;48.472;8.166;2023-02-02T23:37:38;99597.66;;;5.45;93.65
54876;BME280;40764;48.472;8.166;2023-02-02T23:43:38;99604.28;;;5.49;93.62
54876;BME280;40764;48.472;8.166;2023-02-02T23:49:41;99614.75;;;5.46;93.62
54876;BME280;40764;48.472;8.166;2023-02-02T23:55:42;99622.72;;;5.59;93.34
